createdAt,value
2018-06-11T00:00:54.926Z,16.99
2018-06-11T00:01:55.642Z,16.96
2018-06-11T00:02:56.357Z,17.05
2018-06-11T00:03:57.073Z,16.99
2018-06-11T00:04:57.789Z,17.05
2018-06-11T00:05:58.505Z,17.02
2018-06-11T00:06:59.237Z,17.05
2018-06-11T00:07:59.952Z,17.01
2018-06-11T00:09:00.667Z,16.99
2018-06-11T00:10:01.383Z,16.91
2018-06-11T00:11:02.101Z,17.02
2018-06-11T00:12:02.813Z,16.89
2018-06-11T00:13:03.528Z,16.86
2018-06-11T00:14:04.263Z,16.96
2018-06-11T00:15:04.987Z,16.90
2018-06-11T00:16:05.714Z,16.84
2018-06-11T00:17:06.431Z,16.86
2018-06-11T00:18:07.146Z,16.91
2018-06-11T00:19:07.862Z,16.84
2018-06-11T00:20:08.578Z,16.89
2018-06-11T00:21:09.295Z,16.78
2018-06-11T00:22:10.007Z,16.81
2018-06-11T00:23:10.737Z,16.87
2018-06-11T00:24:11.477Z,16.78
2018-06-11T00:25:12.168Z,16.81
2018-06-11T00:26:12.883Z,16.72
2018-06-11T00:27:13.613Z,16.78
2018-06-11T00:28:14.328Z,16.83
2018-06-11T00:29:15.041Z,16.81
2018-06-11T00:30:15.756Z,16.81
2018-06-11T00:31:16.469Z,16.72
2018-06-11T00:32:17.183Z,16.69
2018-06-11T00:33:17.898Z,16.66
2018-06-11T00:34:18.615Z,16.71
2018-06-11T00:35:19.346Z,16.66
2018-06-11T00:36:20.077Z,16.64
2018-06-11T00:37:20.792Z,16.64
2018-06-11T00:38:21.521Z,16.64
2018-06-11T00:39:22.251Z,16.58
2018-06-11T00:40:22.970Z,16.53
2018-06-11T00:41:23.698Z,16.56
2018-06-11T00:42:24.414Z,16.51
2018-06-11T00:43:25.130Z,16.41
2018-06-11T00:44:25.848Z,16.36
2018-06-11T00:45:26.565Z,16.38
2018-06-11T00:46:27.281Z,16.42
2018-06-11T00:47:27.996Z,16.36
2018-06-11T00:48:28.715Z,16.46
2018-06-11T00:49:29.427Z,16.38
2018-06-11T00:50:30.141Z,16.41
2018-06-11T00:51:30.855Z,16.36
2018-06-11T00:52:31.581Z,16.33
2018-06-11T00:53:32.297Z,16.32
2018-06-11T00:54:33.027Z,16.33
2018-06-11T00:55:33.754Z,16.31
2018-06-11T00:56:34.468Z,16.29
2018-06-11T00:57:35.185Z,16.28
2018-06-11T00:58:35.900Z,16.24
2018-06-11T00:59:36.615Z,16.32
2018-06-11T01:00:37.331Z,16.26
2018-06-11T01:01:38.046Z,16.28
2018-06-11T01:02:38.760Z,16.31
2018-06-11T01:03:39.477Z,16.32
2018-06-11T01:04:40.190Z,16.31
2018-06-11T01:05:40.919Z,16.28
2018-06-11T01:06:41.634Z,16.28
2018-06-11T01:07:42.362Z,16.20
2018-06-11T01:08:43.077Z,16.31
2018-06-11T01:09:43.795Z,16.26
2018-06-11T01:10:44.506Z,16.23
2018-06-11T01:11:45.221Z,16.23
2018-06-11T01:12:45.936Z,16.20
2018-06-11T01:13:46.662Z,16.20
2018-06-11T01:14:47.378Z,16.13
2018-06-11T01:15:48.093Z,16.09
2018-06-11T01:16:48.809Z,16.08
2018-06-11T01:17:49.524Z,16.09
2018-06-11T01:18:50.249Z,16.01
2018-06-11T01:19:50.962Z,16.04
2018-06-11T01:20:51.676Z,15.98
2018-06-11T01:21:52.397Z,16.01
2018-06-11T01:22:53.105Z,16.02
2018-06-11T01:23:53.821Z,16.01
2018-06-11T01:24:54.535Z,16.01
2018-06-11T01:25:55.265Z,15.98
2018-06-11T01:26:55.984Z,16.04
2018-06-11T01:27:56.707Z,16.00
2018-06-11T01:28:57.432Z,15.95
2018-06-11T01:29:58.145Z,16.01
2018-06-11T01:30:58.858Z,16.02
2018-06-11T01:31:59.571Z,15.88
2018-06-11T01:33:00.286Z,16.00
2018-06-11T01:34:01.000Z,15.91
2018-06-11T01:35:01.715Z,15.91
2018-06-11T01:36:02.441Z,15.92
2018-06-11T01:37:03.156Z,15.94
2018-06-11T01:38:03.872Z,15.91
2018-06-11T01:39:04.586Z,15.88
2018-06-11T01:40:05.300Z,15.92
2018-06-11T01:41:06.015Z,15.80
2018-06-11T01:42:06.740Z,15.94
2018-06-11T01:43:07.455Z,15.82
2018-06-11T01:44:08.169Z,15.82
2018-06-11T01:45:08.885Z,15.84
2018-06-11T01:46:09.600Z,15.80
2018-06-11T01:47:10.319Z,15.77
2018-06-11T01:48:11.027Z,15.84
2018-06-11T01:49:11.740Z,15.86
2018-06-11T01:50:12.469Z,15.91
2018-06-11T01:51:13.185Z,15.97
2018-06-11T01:52:13.900Z,15.91
2018-06-11T01:53:14.626Z,15.94
2018-06-11T01:54:15.353Z,15.92
2018-06-11T01:55:16.067Z,15.94
2018-06-11T01:56:16.780Z,15.94
2018-06-11T01:57:17.494Z,16.02
2018-06-11T01:58:18.211Z,15.95
2018-06-11T01:59:18.922Z,15.98
2018-06-11T02:00:19.635Z,16.01
2018-06-11T02:01:20.349Z,15.97
2018-06-11T02:02:21.061Z,15.97
2018-06-11T02:03:21.774Z,16.02
2018-06-11T02:04:22.489Z,15.94
2018-06-11T02:05:23.201Z,16.01
2018-06-11T02:06:23.919Z,16.09
2018-06-11T02:07:24.641Z,16.13
2018-06-11T02:08:25.355Z,16.10
2018-06-11T02:09:26.083Z,16.10
2018-06-11T02:10:26.796Z,16.16
2018-06-11T02:11:27.512Z,16.31
2018-06-11T02:12:28.225Z,16.20
2018-06-11T02:13:28.943Z,16.21
2018-06-11T02:14:29.665Z,16.28
2018-06-11T02:15:30.378Z,16.32
2018-06-11T02:16:31.092Z,16.31
2018-06-11T02:17:31.807Z,16.31
2018-06-11T02:18:32.532Z,16.28
2018-06-11T02:19:33.260Z,16.33
2018-06-11T02:20:33.987Z,16.38
2018-06-11T02:21:34.701Z,16.38
2018-06-11T02:22:35.414Z,16.41
2018-06-11T02:23:36.128Z,16.35
2018-06-11T02:24:36.856Z,16.50
2018-06-11T02:25:37.571Z,16.53
2018-06-11T02:26:38.297Z,16.53
2018-06-11T02:27:39.023Z,16.54
2018-06-11T02:28:39.738Z,16.53
2018-06-11T02:29:40.451Z,16.54
2018-06-11T02:30:41.179Z,16.57
2018-06-11T02:31:41.893Z,16.54
2018-06-11T02:32:42.620Z,16.56
2018-06-11T02:33:43.343Z,16.51
2018-06-11T02:34:44.057Z,16.53
2018-06-11T02:35:44.770Z,16.56
2018-06-11T02:36:45.483Z,16.58
2018-06-11T02:37:46.196Z,16.60
2018-06-11T02:38:46.909Z,16.65
2018-06-11T02:39:47.636Z,16.72
2018-06-11T02:40:48.366Z,16.66
2018-06-11T02:41:49.077Z,16.66
2018-06-11T02:42:49.791Z,16.69
2018-06-11T02:43:50.504Z,16.64
2018-06-11T02:44:51.229Z,16.64
2018-06-11T02:45:51.946Z,16.69
2018-06-11T02:46:52.660Z,16.69
2018-06-11T02:47:53.375Z,16.71
2018-06-11T02:48:54.091Z,16.69
2018-06-11T02:49:54.805Z,16.76
2018-06-11T02:50:55.521Z,16.81
2018-06-11T02:51:56.235Z,16.74
2018-06-11T02:52:56.952Z,16.78
2018-06-11T02:53:57.670Z,16.78
2018-06-11T02:54:58.396Z,16.76
2018-06-11T02:55:59.110Z,16.79
2018-06-11T02:56:59.825Z,16.83
2018-06-11T02:58:00.542Z,16.81
2018-06-11T02:59:01.255Z,16.83
2018-06-11T03:00:01.972Z,16.78
2018-06-11T03:01:02.688Z,16.89
2018-06-11T03:02:03.414Z,16.76
2018-06-11T03:03:04.137Z,16.84
2018-06-11T03:04:04.845Z,16.87
2018-06-11T03:05:05.556Z,16.89
2018-06-11T03:06:06.275Z,16.84
2018-06-11T03:07:07.004Z,16.78
2018-06-11T03:08:07.731Z,16.79
2018-06-11T03:09:08.447Z,16.91
2018-06-11T03:10:09.165Z,16.90
2018-06-11T03:11:09.881Z,16.79
2018-06-11T03:12:10.612Z,16.83
2018-06-11T03:13:11.340Z,16.93
2018-06-11T03:14:12.072Z,16.87
2018-06-11T03:15:12.789Z,16.87
2018-06-11T03:16:13.507Z,16.83
2018-06-11T03:17:14.222Z,16.89
2018-06-11T03:18:14.952Z,16.91
2018-06-11T03:19:15.668Z,16.84
2018-06-11T03:20:16.398Z,16.90
2018-06-11T03:21:17.115Z,16.93
2018-06-11T03:22:17.831Z,16.83
2018-06-11T03:23:18.559Z,16.89
2018-06-11T03:24:19.276Z,16.86
2018-06-11T03:25:20.009Z,16.90
2018-06-11T03:26:20.726Z,16.87
2018-06-11T03:27:21.444Z,16.91
2018-06-11T03:28:22.161Z,16.91
2018-06-11T03:29:22.888Z,16.89
2018-06-11T03:30:23.608Z,16.83
2018-06-11T03:31:24.336Z,16.96
2018-06-11T03:32:25.054Z,16.83
2018-06-11T03:33:25.771Z,17.02
2018-06-11T03:34:26.490Z,16.90
2018-06-11T03:35:27.207Z,16.96
2018-06-11T03:36:27.926Z,16.96
2018-06-11T03:37:28.645Z,16.87
2018-06-11T03:38:29.361Z,16.87
2018-06-11T03:39:30.080Z,16.84
2018-06-11T03:40:30.800Z,16.93
2018-06-11T03:41:31.519Z,16.91
2018-06-11T03:42:32.236Z,16.87
2018-06-11T03:43:32.953Z,16.99
2018-06-11T03:44:33.684Z,16.87
2018-06-11T03:45:34.401Z,16.87
2018-06-11T03:46:35.121Z,16.84
2018-06-11T03:47:35.840Z,16.86
2018-06-11T03:48:36.558Z,16.90
2018-06-11T03:49:37.274Z,16.90
2018-06-11T03:50:38.004Z,16.91
2018-06-11T03:51:38.736Z,16.90
2018-06-11T03:52:39.514Z,16.90
2018-06-11T03:53:40.182Z,16.89
2018-06-11T03:54:40.912Z,16.81
2018-06-11T03:55:41.629Z,16.94
2018-06-11T03:56:42.352Z,16.91
2018-06-11T03:57:43.067Z,16.78
2018-06-11T03:58:43.784Z,16.78
2018-06-11T03:59:44.502Z,16.79
2018-06-11T04:00:45.233Z,16.79
2018-06-11T04:01:45.938Z,16.75
2018-06-11T04:02:46.654Z,16.78
2018-06-11T04:03:47.373Z,16.81
2018-06-11T04:04:48.104Z,16.66
2018-06-11T04:05:48.817Z,16.64
2018-06-11T04:06:49.533Z,16.60
2018-06-11T04:07:50.260Z,16.60
2018-06-11T04:08:50.978Z,16.66
2018-06-11T04:09:51.695Z,16.61
2018-06-11T04:10:52.444Z,16.65
2018-06-11T04:11:53.132Z,16.68
2018-06-11T04:12:53.846Z,16.57
2018-06-11T04:13:54.565Z,16.58
2018-06-11T04:14:55.285Z,16.51
2018-06-11T04:15:56.002Z,16.51
2018-06-11T04:16:56.719Z,16.51
2018-06-11T04:17:57.438Z,16.49
2018-06-11T04:18:58.158Z,16.47
2018-06-11T04:19:58.875Z,16.51
2018-06-11T04:20:59.594Z,16.54
2018-06-11T04:22:00.312Z,16.51
2018-06-11T04:23:01.031Z,16.53
2018-06-11T04:24:01.750Z,16.57
2018-06-11T04:25:02.481Z,16.64
2018-06-11T04:26:03.197Z,16.66
2018-06-11T04:27:03.927Z,16.61
2018-06-11T04:28:04.645Z,16.69
2018-06-11T04:29:05.361Z,16.56
2018-06-11T04:30:06.077Z,16.56
2018-06-11T04:31:06.799Z,16.58
2018-06-11T04:32:07.529Z,16.54
2018-06-11T04:33:08.260Z,16.53
2018-06-11T04:34:08.979Z,16.51
2018-06-11T04:35:09.695Z,16.51
2018-06-11T04:36:10.426Z,16.51
2018-06-11T04:37:11.147Z,16.51
2018-06-11T04:38:11.868Z,16.46
2018-06-11T04:39:12.587Z,16.49
2018-06-11T04:40:13.306Z,16.50
2018-06-11T04:41:14.026Z,16.39
2018-06-11T04:42:14.744Z,16.41
2018-06-11T04:43:15.462Z,16.47
2018-06-11T04:44:16.195Z,16.39
2018-06-11T04:45:16.969Z,16.39
2018-06-11T04:46:17.630Z,16.41
2018-06-11T04:47:18.351Z,16.41
2018-06-11T04:48:19.071Z,16.47
2018-06-11T04:49:19.783Z,16.46
2018-06-11T04:50:20.500Z,16.47
2018-06-11T04:51:21.231Z,16.43
2018-06-11T04:52:21.949Z,16.41
2018-06-11T04:53:22.678Z,16.39
2018-06-11T04:54:23.395Z,16.36
2018-06-11T04:55:24.115Z,16.42
2018-06-11T04:56:24.834Z,16.38
2018-06-11T04:57:25.556Z,16.35
2018-06-11T04:58:26.285Z,16.39
2018-06-11T04:59:27.004Z,16.38
2018-06-11T05:00:27.724Z,16.41
2018-06-11T05:01:28.439Z,16.35
2018-06-11T05:02:29.156Z,16.43
2018-06-11T05:03:29.877Z,16.35
2018-06-11T05:04:30.604Z,16.33
2018-06-11T05:05:31.324Z,16.35
2018-06-11T05:06:32.043Z,16.33
2018-06-11T05:07:32.764Z,16.29
2018-06-11T05:08:33.479Z,16.31
2018-06-11T05:09:34.196Z,16.42
2018-06-11T05:10:34.916Z,16.46
2018-06-11T05:11:35.648Z,16.46
2018-06-11T05:12:36.368Z,16.39
2018-06-11T05:13:37.086Z,16.38
2018-06-11T05:14:37.818Z,16.33
2018-06-11T05:15:38.537Z,16.36
2018-06-11T05:16:39.256Z,16.43
2018-06-11T05:17:39.977Z,16.58
2018-06-11T05:18:40.713Z,16.64
2018-06-11T05:19:41.434Z,16.58
2018-06-11T05:20:42.205Z,16.64
2018-06-11T05:21:42.884Z,16.68
2018-06-11T05:22:43.618Z,16.76
2018-06-11T05:23:44.337Z,16.83
2018-06-11T05:24:45.067Z,16.90
2018-06-11T05:25:45.787Z,16.90
2018-06-11T05:26:46.511Z,16.87
2018-06-11T05:27:47.239Z,16.84
2018-06-11T05:28:48.012Z,16.86
2018-06-11T05:29:48.681Z,16.87
2018-06-11T05:30:49.402Z,16.86
2018-06-11T05:31:50.122Z,16.94
2018-06-11T05:32:50.842Z,16.84
2018-06-11T05:33:51.563Z,16.87
2018-06-11T05:34:52.318Z,16.87
2018-06-11T05:35:53.003Z,16.86
2018-06-11T05:36:53.723Z,16.84
2018-06-11T05:37:54.444Z,16.78
2018-06-11T05:38:55.164Z,16.86
2018-06-11T05:39:55.886Z,16.89
2018-06-11T05:40:56.618Z,16.84
2018-06-11T05:41:57.351Z,16.86
2018-06-11T05:42:58.082Z,16.87
2018-06-11T05:43:58.818Z,16.93
2018-06-11T05:44:59.534Z,17.01
2018-06-11T05:46:00.253Z,17.02
2018-06-11T05:47:00.976Z,16.97
2018-06-11T05:48:01.758Z,16.94
2018-06-11T05:49:02.427Z,16.94
2018-06-11T05:50:03.158Z,17.02
2018-06-11T05:51:03.881Z,17.06
2018-06-11T05:52:04.638Z,16.94
2018-06-11T05:53:05.355Z,17.09
2018-06-11T05:54:06.075Z,17.14
2018-06-11T05:55:06.795Z,17.22
2018-06-11T05:56:07.525Z,17.16
2018-06-11T05:57:08.244Z,17.23
2018-06-11T05:58:09.011Z,17.27
2018-06-11T05:59:09.731Z,17.31
2018-06-11T06:00:10.450Z,17.31
2018-06-11T06:01:11.169Z,17.31
2018-06-11T06:02:11.903Z,17.20
2018-06-11T06:03:12.621Z,17.20
2018-06-11T06:04:13.340Z,17.23
2018-06-11T06:05:14.058Z,17.19
2018-06-11T06:06:14.779Z,17.24
2018-06-11T06:07:15.499Z,17.22
2018-06-11T06:08:16.234Z,17.15
2018-06-11T06:09:16.955Z,17.27
2018-06-11T06:10:17.673Z,17.26
2018-06-11T06:11:18.393Z,17.36
2018-06-11T06:12:19.113Z,17.39
2018-06-11T06:13:19.834Z,17.38
2018-06-11T06:14:20.554Z,17.51
2018-06-11T06:15:21.275Z,17.49
2018-06-11T06:16:22.000Z,17.59
2018-06-11T06:17:22.731Z,17.70
2018-06-11T06:18:23.451Z,17.67
2018-06-11T06:19:24.171Z,17.67
2018-06-11T06:20:24.893Z,17.71
2018-06-11T06:21:25.616Z,17.83
2018-06-11T06:22:26.335Z,17.79
2018-06-11T06:23:27.070Z,17.83
2018-06-11T06:24:27.788Z,17.82
2018-06-11T06:25:28.511Z,17.71
2018-06-11T06:26:29.232Z,17.65
2018-06-11T06:27:29.951Z,17.65
2018-06-11T06:28:30.672Z,17.63
2018-06-11T06:29:31.395Z,17.60
2018-06-11T06:30:32.116Z,17.67
2018-06-11T06:31:32.838Z,17.79
2018-06-11T06:32:33.561Z,17.70
2018-06-11T06:33:34.281Z,17.72
2018-06-11T06:34:35.145Z,17.68
2018-06-11T06:35:35.723Z,17.85
2018-06-11T06:36:36.457Z,17.89
2018-06-11T06:37:37.183Z,18.00
2018-06-11T06:38:37.898Z,18.03
2018-06-11T06:39:38.668Z,18.16
2018-06-11T06:40:39.339Z,18.29
2018-06-11T06:41:40.062Z,18.35
2018-06-11T06:42:40.789Z,18.43
2018-06-11T06:43:41.510Z,18.58
2018-06-11T06:44:42.232Z,18.62
2018-06-11T06:45:42.956Z,18.71
2018-06-11T06:46:43.679Z,18.80
2018-06-11T06:47:44.414Z,18.96
2018-06-11T06:48:45.137Z,19.00
2018-06-11T06:49:45.860Z,19.08
2018-06-11T06:50:46.580Z,19.14
2018-06-11T06:51:47.300Z,19.14
2018-06-11T06:52:48.035Z,19.08
2018-06-11T06:53:48.758Z,19.16
2018-06-11T06:54:49.494Z,19.11
2018-06-11T06:55:50.218Z,19.18
2018-06-11T06:56:50.957Z,19.15
2018-06-11T06:57:51.681Z,19.19
2018-06-11T06:58:52.416Z,19.22
2018-06-11T06:59:53.139Z,19.26
2018-06-11T07:00:53.872Z,19.26
2018-06-11T07:01:54.593Z,19.24
2018-06-11T07:02:55.314Z,19.16
2018-06-11T07:03:56.036Z,19.29
2018-06-11T07:04:56.772Z,19.26
2018-06-11T07:05:57.493Z,19.24
2018-06-11T07:06:58.229Z,19.29
2018-06-11T07:07:58.956Z,19.15
2018-06-11T07:08:59.678Z,19.33
2018-06-11T07:10:00.402Z,19.26
2018-06-11T07:11:01.126Z,19.30
2018-06-11T07:12:01.849Z,19.55
2018-06-11T07:13:02.571Z,19.58
2018-06-11T07:14:03.295Z,19.55
2018-06-11T07:15:04.020Z,19.62
2018-06-11T07:16:04.744Z,19.81
2018-06-11T07:17:05.466Z,19.82
2018-06-11T07:18:06.190Z,19.74
2018-06-11T07:19:06.925Z,19.85
2018-06-11T07:20:07.657Z,19.82
2018-06-11T07:21:08.376Z,19.92
2018-06-11T07:22:09.110Z,20.00
2018-06-11T07:23:09.835Z,19.92
2018-06-11T07:24:10.564Z,19.95
2018-06-11T07:25:11.287Z,20.03
2018-06-11T07:26:12.011Z,20.04
2018-06-11T07:27:12.781Z,20.09
2018-06-11T07:28:13.463Z,20.18
2018-06-11T07:29:14.188Z,20.19
2018-06-11T07:30:14.928Z,20.28
2018-06-11T07:31:15.657Z,20.28
2018-06-11T07:32:16.380Z,20.39
2018-06-11T07:33:17.105Z,20.44
2018-06-11T07:34:17.830Z,20.48
2018-06-11T07:35:18.555Z,20.51
2018-06-11T07:36:19.283Z,20.50
2018-06-11T07:37:20.026Z,20.31
2018-06-11T07:38:20.763Z,20.48
2018-06-11T07:39:21.489Z,20.69
2018-06-11T07:40:22.218Z,20.81
2018-06-11T07:41:22.958Z,20.78
2018-06-11T07:42:23.697Z,20.90
2018-06-11T07:43:24.424Z,20.88
2018-06-11T07:44:25.159Z,20.92
2018-06-11T07:45:25.899Z,20.81
2018-06-11T07:46:26.642Z,20.81
2018-06-11T07:47:27.372Z,20.72
2018-06-11T07:48:28.111Z,20.84
2018-06-11T07:49:28.840Z,20.96
2018-06-11T07:50:29.570Z,21.09
2018-06-11T07:51:30.297Z,21.06
2018-06-11T07:52:31.029Z,20.96
2018-06-11T07:53:31.758Z,21.07
2018-06-11T07:54:32.488Z,21.18
2018-06-11T07:55:33.223Z,21.32
2018-06-11T07:56:33.950Z,21.05
2018-06-11T07:57:34.691Z,21.11
2018-06-11T07:58:35.432Z,21.32
2018-06-11T07:59:36.165Z,21.45
2018-06-11T08:00:36.900Z,21.58
2018-06-11T08:01:37.642Z,21.67
2018-06-11T08:02:38.373Z,21.39
2018-06-11T08:03:39.103Z,21.42
2018-06-11T08:04:39.845Z,21.61
2018-06-11T08:05:40.581Z,21.95
2018-06-11T08:06:41.309Z,22.18
2018-06-11T08:07:42.042Z,22.35
2018-06-11T08:08:42.775Z,22.32
2018-06-11T08:09:43.512Z,22.43
2018-06-11T08:10:44.238Z,22.48
2018-06-11T08:11:44.980Z,22.35
2018-06-11T08:12:45.708Z,22.62
2018-06-11T08:13:46.444Z,22.75
2018-06-11T08:14:47.170Z,22.72
2018-06-11T08:15:47.899Z,22.94
2018-06-11T08:16:48.630Z,23.03
2018-06-11T08:17:49.359Z,23.06
2018-06-11T08:18:50.090Z,22.98
2018-06-11T08:19:50.833Z,22.84
2018-06-11T08:20:51.592Z,22.83
2018-06-11T08:21:52.292Z,22.76
2018-06-11T08:22:53.036Z,22.60
2018-06-11T08:23:53.777Z,22.60
2018-06-11T08:24:54.521Z,22.39
2018-06-11T08:25:55.249Z,22.36
2018-06-11T08:26:55.977Z,22.28
2018-06-11T08:27:56.708Z,22.44
2018-06-11T08:28:57.454Z,22.51
2018-06-11T08:29:58.179Z,22.57
2018-06-11T08:30:58.911Z,22.70
2018-06-11T08:31:59.643Z,22.94
2018-06-11T08:33:00.372Z,23.32
2018-06-11T08:34:01.103Z,23.47
2018-06-11T08:35:01.836Z,23.71
2018-06-11T08:36:02.565Z,23.63
2018-06-11T08:37:03.297Z,23.56
2018-06-11T08:38:04.031Z,23.55
2018-06-11T08:39:04.757Z,23.77
2018-06-11T08:40:05.491Z,23.86
2018-06-11T08:41:06.222Z,24.02
2018-06-11T08:42:06.956Z,24.21
2018-06-11T08:43:07.739Z,24.36
2018-06-11T08:44:08.437Z,24.05
2018-06-11T08:45:09.170Z,24.18
2018-06-11T08:46:09.903Z,24.24
2018-06-11T08:47:10.638Z,24.35
2018-06-11T08:48:11.374Z,24.55
2018-06-11T08:49:12.107Z,24.84
2018-06-11T08:50:12.888Z,25.06
2018-06-11T08:51:13.578Z,25.38
2018-06-11T08:52:14.311Z,25.50
2018-06-11T08:53:15.044Z,25.51
2018-06-11T08:54:15.787Z,25.60
2018-06-11T08:55:16.519Z,25.53
2018-06-11T08:56:17.267Z,25.81
2018-06-11T08:57:17.998Z,25.77
2018-06-11T08:58:18.730Z,25.96
2018-06-11T08:59:19.477Z,25.84
2018-06-11T09:00:20.216Z,25.81
2018-06-11T09:01:20.950Z,25.91
2018-06-11T09:02:21.698Z,25.87
2018-06-11T09:03:22.438Z,25.93
2018-06-11T09:04:23.169Z,25.81
2018-06-11T09:05:23.915Z,25.91
2018-06-11T09:06:24.648Z,26.21
2018-06-11T09:07:25.388Z,25.88
2018-06-11T09:08:26.125Z,26.00
2018-06-11T09:09:26.873Z,25.91
2018-06-11T09:10:27.621Z,26.16
2018-06-11T09:11:28.359Z,26.56
2018-06-11T09:12:29.103Z,26.56
2018-06-11T09:13:29.839Z,26.77
2018-06-11T09:14:30.574Z,26.18
2018-06-11T09:15:31.317Z,26.34
2018-06-11T09:16:32.056Z,25.63
2018-06-11T09:17:32.801Z,25.93
2018-06-11T09:18:33.603Z,26.41
2018-06-11T09:19:34.299Z,26.40
2018-06-11T09:20:35.040Z,26.56
2018-06-11T09:21:35.797Z,26.71
2018-06-11T09:22:36.538Z,26.85
2018-06-11T09:23:37.282Z,27.17
2018-06-11T09:24:38.023Z,27.36
2018-06-11T09:25:38.769Z,27.48
2018-06-11T09:26:39.511Z,27.65
2018-06-11T09:27:40.256Z,27.32
2018-06-11T09:28:41.007Z,27.29
2018-06-11T09:29:41.750Z,27.89
2018-06-11T09:30:42.496Z,28.17
2018-06-11T09:31:43.237Z,28.11
2018-06-11T09:32:43.978Z,28.29
2018-06-11T09:33:44.735Z,28.42
2018-06-11T09:34:45.478Z,28.60
2018-06-11T09:35:46.220Z,28.60
2018-06-11T09:36:46.979Z,28.98
2018-06-11T09:37:47.732Z,28.94
2018-06-11T09:38:48.473Z,29.12
2018-06-11T09:39:49.215Z,29.23
2018-06-11T09:40:49.971Z,28.93
2018-06-11T09:41:50.715Z,29.08
2018-06-11T09:42:51.458Z,29.34
2018-06-11T09:43:52.253Z,29.50
2018-06-11T09:44:52.944Z,28.93
2018-06-11T09:45:53.687Z,28.75
2018-06-11T09:46:54.428Z,28.89
2018-06-11T09:47:55.169Z,28.70
2018-06-11T09:48:55.916Z,28.04
2018-06-11T09:49:56.657Z,27.83
2018-06-11T09:50:57.411Z,27.32
2018-06-11T09:51:58.153Z,27.07
2018-06-11T09:52:58.895Z,26.75
2018-06-11T09:53:59.635Z,26.66
2018-06-11T09:55:00.377Z,26.84
2018-06-11T09:56:01.116Z,27.07
2018-06-11T09:57:01.871Z,26.96
2018-06-11T09:58:02.614Z,26.93
2018-06-11T09:59:03.354Z,26.71
2018-06-11T10:00:04.097Z,26.62
2018-06-11T10:01:04.832Z,26.56
2018-06-11T10:02:05.570Z,26.63
2018-06-11T10:03:06.322Z,26.68
2018-06-11T10:04:07.069Z,26.71
2018-06-11T10:05:07.804Z,26.77
2018-06-11T10:06:08.544Z,26.83
2018-06-11T10:07:09.288Z,27.00
2018-06-11T10:08:10.043Z,27.30
2018-06-11T10:09:10.884Z,27.59
2018-06-11T10:10:11.533Z,27.78
2018-06-11T10:11:12.284Z,27.80
2018-06-11T10:12:13.079Z,28.02
2018-06-11T10:13:13.761Z,28.04
2018-06-11T10:14:14.509Z,28.11
2018-06-11T10:15:15.252Z,28.23
2018-06-11T10:16:15.996Z,28.29
2018-06-11T10:17:16.738Z,28.11
2018-06-11T10:18:17.480Z,28.20
2018-06-11T10:19:18.276Z,28.32
2018-06-11T10:20:18.961Z,28.01
2018-06-11T10:21:19.701Z,28.05
2018-06-11T10:22:20.440Z,27.77
2018-06-11T10:23:21.183Z,27.74
2018-06-11T10:24:21.917Z,27.89
2018-06-11T10:25:22.658Z,27.82
2018-06-11T10:26:23.409Z,27.82
2018-06-11T10:27:24.148Z,27.80
2018-06-11T10:28:24.883Z,28.05
2018-06-11T10:29:25.630Z,27.96
2018-06-11T10:30:26.366Z,27.75
2018-06-11T10:31:27.109Z,27.67
2018-06-11T10:32:27.851Z,28.15
2018-06-11T10:33:28.589Z,28.08
2018-06-11T10:34:29.333Z,28.39
2018-06-11T10:35:30.089Z,28.70
2018-06-11T10:36:30.833Z,28.81
2018-06-11T10:37:31.579Z,29.02
2018-06-11T10:38:32.325Z,29.05
2018-06-11T10:39:33.071Z,29.23
2018-06-11T10:40:33.816Z,29.13
2018-06-11T10:41:34.559Z,28.86
2018-06-11T10:42:35.300Z,29.01
2018-06-11T10:43:36.053Z,29.24
2018-06-11T10:44:36.793Z,29.71
2018-06-11T10:45:37.537Z,29.86
2018-06-11T10:46:38.290Z,30.16
2018-06-11T10:47:39.045Z,29.76
2018-06-11T10:48:39.788Z,29.94
2018-06-11T10:49:40.530Z,30.03
2018-06-11T10:50:41.276Z,30.02
2018-06-11T10:51:42.017Z,29.63
2018-06-11T10:52:42.760Z,29.17
2018-06-11T10:53:43.503Z,28.27
2018-06-11T10:54:44.245Z,28.51
2018-06-11T10:55:44.999Z,28.63
2018-06-11T10:56:45.740Z,28.76
2018-06-11T10:57:46.485Z,28.70
2018-06-11T10:58:47.227Z,28.93
2018-06-11T10:59:47.967Z,29.45
2018-06-11T11:00:48.710Z,29.35
2018-06-11T11:01:49.453Z,29.63
2018-06-11T11:02:50.195Z,29.71
2018-06-11T11:03:50.952Z,29.84
2018-06-11T11:04:51.696Z,29.95
2018-06-11T11:05:52.447Z,29.76
2018-06-11T11:06:53.189Z,29.47
2018-06-11T11:07:53.933Z,29.90
2018-06-11T11:08:54.674Z,30.06
2018-06-11T11:09:55.421Z,30.24
2018-06-11T11:10:56.163Z,30.27
2018-06-11T11:11:56.902Z,29.71
2018-06-11T11:12:57.639Z,29.86
2018-06-11T11:13:58.386Z,30.18
2018-06-11T11:14:59.129Z,30.61
2018-06-11T11:15:59.880Z,30.43
2018-06-11T11:17:00.619Z,30.50
2018-06-11T11:18:01.358Z,30.81
2018-06-11T11:19:02.101Z,30.61
2018-06-11T11:20:02.840Z,30.88
2018-06-11T11:21:03.595Z,30.99
2018-06-11T11:22:04.327Z,30.94
2018-06-11T11:23:05.067Z,30.99
2018-06-11T11:24:05.810Z,30.92
2018-06-11T11:25:06.552Z,30.96
2018-06-11T11:26:07.307Z,31.06
2018-06-11T11:27:08.049Z,30.88
2018-06-11T11:28:08.816Z,31.56
2018-06-11T11:29:09.560Z,31.61
2018-06-11T11:30:10.298Z,31.61
2018-06-11T11:31:11.040Z,31.55
2018-06-11T11:32:11.781Z,32.00
2018-06-11T11:33:12.521Z,31.97
2018-06-11T11:34:13.265Z,31.71
2018-06-11T11:35:14.006Z,31.78
2018-06-11T11:36:14.749Z,31.92
2018-06-11T11:37:15.491Z,31.52
2018-06-11T11:38:16.229Z,31.03
2018-06-11T11:39:16.968Z,31.27
2018-06-11T11:40:17.721Z,31.80
2018-06-11T11:41:18.472Z,31.94
2018-06-11T11:42:19.210Z,31.59
2018-06-11T11:43:19.948Z,31.52
2018-06-11T11:44:20.687Z,31.59
2018-06-11T11:45:21.437Z,31.21
2018-06-11T11:46:22.176Z,31.24
2018-06-11T11:47:22.916Z,31.28
2018-06-11T11:48:23.662Z,31.49
2018-06-11T11:49:24.394Z,31.64
2018-06-11T11:50:25.133Z,31.81
2018-06-11T11:51:25.870Z,31.43
2018-06-11T11:52:26.624Z,31.27
2018-06-11T11:53:27.376Z,31.25
2018-06-11T11:54:28.115Z,31.21
2018-06-11T11:55:28.868Z,31.54
2018-06-11T11:56:29.609Z,31.43
2018-06-11T11:57:30.416Z,31.55
2018-06-11T11:58:31.109Z,31.66
2018-06-11T11:59:31.848Z,31.84
2018-06-11T12:00:32.588Z,32.22
2018-06-11T12:01:33.329Z,31.96
2018-06-11T12:02:34.080Z,31.94
2018-06-11T12:03:34.833Z,32.26
2018-06-11T12:04:35.574Z,32.40
2018-06-11T12:05:36.323Z,32.52
2018-06-11T12:06:37.077Z,32.64
2018-06-11T12:07:37.821Z,32.30
2018-06-11T12:08:38.553Z,32.71
2018-06-11T12:09:39.294Z,32.82
2018-06-11T12:10:40.046Z,32.90
2018-06-11T12:11:40.784Z,33.07
2018-06-11T12:12:41.523Z,33.32
2018-06-11T12:13:42.275Z,33.23
2018-06-11T12:14:43.001Z,33.30
2018-06-11T12:15:43.742Z,33.00
2018-06-11T12:16:44.493Z,32.78
2018-06-11T12:17:45.229Z,32.67
2018-06-11T12:18:45.980Z,32.65
2018-06-11T12:19:46.720Z,32.49
2018-06-11T12:20:47.458Z,32.59
2018-06-11T12:21:48.198Z,31.90
2018-06-11T12:22:48.935Z,32.00
2018-06-11T12:23:49.674Z,31.97
2018-06-11T12:24:50.413Z,32.41
2018-06-11T12:25:51.163Z,32.68
2018-06-11T12:26:51.913Z,32.56
2018-06-11T12:27:52.652Z,32.22
2018-06-11T12:28:53.391Z,32.38
2018-06-11T12:29:54.128Z,32.45
2018-06-11T12:30:54.868Z,32.26
2018-06-11T12:31:55.605Z,32.46
2018-06-11T12:32:56.359Z,32.71
2018-06-11T12:33:57.096Z,32.83
2018-06-11T12:34:57.847Z,33.02
2018-06-11T12:35:58.589Z,33.22
2018-06-11T12:36:59.331Z,33.36
2018-06-11T12:38:00.065Z,33.23
2018-06-11T12:39:00.804Z,33.19
2018-06-11T12:40:01.543Z,33.30
2018-06-11T12:41:02.293Z,33.37
2018-06-11T12:42:03.031Z,33.37
2018-06-11T12:43:03.768Z,33.59
2018-06-11T12:44:04.508Z,33.15
2018-06-11T12:45:05.244Z,32.90
2018-06-11T12:46:05.995Z,33.14
2018-06-11T12:47:06.734Z,33.19
2018-06-11T12:48:07.473Z,33.30
2018-06-11T12:49:08.213Z,32.97
2018-06-11T12:50:08.953Z,33.12
2018-06-11T12:51:09.705Z,33.00
2018-06-11T12:52:10.444Z,32.96
2018-06-11T12:53:11.183Z,33.20
2018-06-11T12:54:11.933Z,33.12
2018-06-11T12:55:12.672Z,33.09
2018-06-11T12:56:13.459Z,33.23
2018-06-11T12:57:14.149Z,33.08
2018-06-11T12:58:14.902Z,32.96
2018-06-11T12:59:15.652Z,33.23
2018-06-11T13:00:16.390Z,32.49
2018-06-11T13:01:17.142Z,32.77
2018-06-11T13:02:17.892Z,33.07